sensor_id;sensor_type;location;lat;lon;timestamp;pressure;altitude;pressure_sealevel;temperature;humidity
61906;BME280;47863;55.766;37.672;2022-07-04T00:00:44;99828.56;;;21.14;45.58
61906;BME280;47863;55.766;37.672;2022-07-04T00:03:10;99829.47;;;21.08;45.44
61906;BME280;47863;55.766;37.672;2022-07-04T00:05:35;99813.91;;;20.97;45.25
61906;BME280;47863;55.766;37.672;2022-07-04T00:08:01;99820.59;;;21.01;45.06
61906;BME280;47863;55.766;37.672;2022-07-04T00:10:27;99805.75;;;20.97;46.04
61906;BME280;47863;55.766;37.672;2022-07-04T00:12:52;99819.50;;;21.02;45.65
61906;BME280;47863;55.766;37.672;2022-07-04T00:15:18;99806.00;;;20.95;45.91
61906;BME280;47863;55.766;37.672;2022-07-04T00:17:44;99817.22;;;20.99;45.76
61906;BME280;47863;55.766;37.672;2022-07-04T00:20:10;99817.22;;;20.99;45.76
61906;BME280;47863;55.766;37.672;2022-07-04T00:22:37;99823.16;;;20.96;45.46
61906;BME280;47863;55.766;37.672;2022-07-04T00:25:03;99816.13;;;20.88;45.68
61906;BME280;47863;55.766;37.672;2022-07-04T00:27:29;99808.03;;;20.82;45.55
61906;BME280;47863;55.766;37.672;2022-07-04T00:29:55;99823.16;;;20.77;45.90
61906;BME280;47863;55.766;37.672;2022-07-04T00:32:21;99817.13;;;20.75;46.29
61906;BME280;47863;55.766;37.672;2022-07-04T00:34:46;99825.28;;;20.75;46.28
61906;BME280;47863;55.766;37.672;2022-07-04T00:37:12;99824.06;;;20.71;46.34
61906;BME280;47863;55.766;37.672;2022-07-04T00:39:38;99825.34;;;20.69;46.66
61906;BME280;47863;55.766;37.672;2022-07-04T00:42:04;99827.47;;;20.67;46.80
61906;BME280;47863;55.766;37.672;2022-07-04T00:44:30;99808.91;;;20.57;47.06
61906;BME280;47863;55.766;37.672;2022-07-04T00:46:56;99806.06;;;20.52;46.58
61906;BME280;47863;55.766;37.672;2022-07-04T00:49:22;99824.19;;;20.58;46.92
61906;BME280;47863;55.766;37.672;2022-07-04T00:51:47;99825.69;;;20.54;46.93
61906;BME280;47863;55.766;37.672;2022-07-04T00:54:15;99822.81;;;20.49;47.07
61906;BME280;47863;55.766;37.672;2022-07-04T00:56:43;99834.13;;;20.46;46.67
61906;BME280;47863;55.766;37.672;2022-07-04T00:59:10;99840.25;;;20.41;46.58
61906;BME280;47863;55.766;37.672;2022-07-04T01:01:36;99838.81;;;20.38;47.42
61906;BME280;47863;55.766;37.672;2022-07-04T01:04:04;99842.84;;;20.36;47.72
61906;BME280;47863;55.766;37.672;2022-07-04T01:06:30;99840.34;;;20.34;47.62
61906;BME280;47863;55.766;37.672;2022-07-04T01:08:57;99839.25;;;20.35;46.98
61906;BME280;47863;55.766;37.672;2022-07-04T01:11:23;99838.03;;;20.31;47.16
61906;BME280;47863;55.766;37.672;2022-07-04T01:13:48;99838.66;;;20.33;47.40
61906;BME280;47863;55.766;37.672;2022-07-04T01:16:15;99843.69;;;20.30;47.94
61906;BME280;47863;55.766;37.672;2022-07-04T01:18:41;99844.31;;;20.32;47.93
61906;BME280;47863;55.766;37.672;2022-07-04T01:21:07;99851.66;;;20.31;47.97
61906;BME280;47863;55.766;37.672;2022-07-04T01:23:40;99849.75;;;20.32;47.52
61906;BME280;47863;55.766;37.672;2022-07-04T01:26:07;99859.81;;;20.31;47.82
61906;BME280;47863;55.766;37.672;2022-07-04T01:28:33;99856.25;;;20.31;47.86
61906;BME280;47863;55.766;37.672;2022-07-04T01:30:59;99857.56;;;20.28;47.99
61906;BME280;47863;55.766;37.672;2022-07-04T01:33:25;99852.16;;;20.21;48.87
61906;BME280;47863;55.766;37.672;2022-07-04T01:35:51;99857.97;;;20.25;48.84
61906;BME280;47863;55.766;37.672;2022-07-04T01:38:16;99859.41;;;20.28;48.90
61906;BME280;47863;55.766;37.672;2022-07-04T01:40:42;99860.28;;;20.28;49.06
61906;BME280;47863;55.766;37.672;2022-07-04T01:43:08;99861.09;;;20.29;49.00
61906;BME280;47863;55.766;37.672;2022-07-04T01:45:34;99865.47;;;20.30;49.23
61906;BME280;47863;55.766;37.672;2022-07-04T01:48:06;99864.22;;;20.32;49.34
61906;BME280;47863;55.766;37.672;2022-07-04T01:50:33;99862.09;;;20.34;49.44
61906;BME280;47863;55.766;37.672;2022-07-04T01:52:59;99861.03;;;20.35;49.44
61906;BME280;47863;55.766;37.672;2022-07-04T01:55:24;99854.53;;;20.36;49.52
61906;BME280;47863;55.766;37.672;2022-07-04T01:57:50;99862.50;;;20.38;49.26
61906;BME280;47863;55.766;37.672;2022-07-04T02:00:16;99859.31;;;20.41;49.66
61906;BME280;47863;55.766;37.672;2022-07-04T02:03:00;99852.03;;;20.35;49.42
61906;BME280;47863;55.766;37.672;2022-07-04T02:05:26;99863.91;;;20.40;49.67
61906;BME280;47863;55.766;37.672;2022-07-04T02:07:51;99855.16;;;20.38;49.64
61906;BME280;47863;55.766;37.672;2022-07-04T02:10:17;99818.38;;;20.11;49.46
61906;BME280;47863;55.766;37.672;2022-07-04T02:12:43;99859.31;;;20.41;49.36
61906;BME280;47863;55.766;37.672;2022-07-04T02:15:35;99863.44;;;20.44;49.73
61906;BME280;47863;55.766;37.672;2022-07-04T02:18:04;99864.13;;;20.39;49.79
61906;BME280;47863;55.766;37.672;2022-07-04T02:22:56;99874.06;;;20.52;49.77
61906;BME280;47863;55.766;37.672;2022-07-04T02:25:22;99866.56;;;20.47;50.36
61906;BME280;47863;55.766;37.672;2022-07-04T02:27:48;99875.69;;;20.59;49.95
61906;BME280;47863;55.766;37.672;2022-07-04T02:30:14;99871.69;;;20.62;50.14
61906;BME280;47863;55.766;37.672;2022-07-04T02:32:40;99878.78;;;20.63;49.67
61906;BME280;47863;55.766;37.672;2022-07-04T02:35:06;99861.03;;;20.60;49.80
61906;BME280;47863;55.766;37.672;2022-07-04T02:37:32;99855.50;;;20.67;49.98
61906;BME280;47863;55.766;37.672;2022-07-04T02:39:58;99873.91;;;20.72;50.05
61906;BME280;47863;55.766;37.672;2022-07-04T02:42:23;99871.41;;;20.70;49.71
61906;BME280;47863;55.766;37.672;2022-07-04T02:44:49;99866.16;;;20.69;49.88
61906;BME280;47863;55.766;37.672;2022-07-04T02:47:15;99871.00;;;20.67;49.94
61906;BME280;47863;55.766;37.672;2022-07-04T02:49:42;99877.00;;;20.75;50.18
61906;BME280;47863;55.766;37.672;2022-07-04T02:52:08;99881.97;;;20.78;50.21
61906;BME280;47863;55.766;37.672;2022-07-04T02:54:33;99864.88;;;20.71;50.18
61906;BME280;47863;55.766;37.672;2022-07-04T02:56:59;99883.41;;;20.81;49.91
61906;BME280;47863;55.766;37.672;2022-07-04T02:59:24;99871.56;;;20.75;50.07
61906;BME280;47863;55.766;37.672;2022-07-04T03:01:50;99862.16;;;20.71;50.11
61906;BME280;47863;55.766;37.672;2022-07-04T03:04:16;99874.81;;;20.84;50.39
61906;BME280;47863;55.766;37.672;2022-07-04T03:06:41;99873.06;;;20.90;50.41
61906;BME280;47863;55.766;37.672;2022-07-04T03:09:08;99870.94;;;20.92;50.40
61906;BME280;47863;55.766;37.672;2022-07-04T03:11:34;99880.50;;;21.01;50.44
61906;BME280;47863;55.766;37.672;2022-07-04T03:13:59;99881.31;;;21.02;50.43
61906;BME280;47863;55.766;37.672;2022-07-04T03:16:25;99881.69;;;21.05;50.13
61906;BME280;47863;55.766;37.672;2022-07-04T03:18:50;99881.81;;;21.10;50.46
61906;BME280;47863;55.766;37.672;2022-07-04T03:21:16;99873.88;;;21.09;50.26
61906;BME280;47863;55.766;37.672;2022-07-04T03:23:41;99892.78;;;21.22;50.49
61906;BME280;47863;55.766;37.672;2022-07-04T03:26:07;99889.25;;;21.22;50.25
61906;BME280;47863;55.766;37.672;2022-07-04T03:28:32;99898.53;;;21.32;50.35
61906;BME280;47863;55.766;37.672;2022-07-04T03:30:58;99879.22;;;21.34;50.20
61906;BME280;47863;55.766;37.672;2022-07-04T03:33:24;99874.94;;;21.45;49.86
61906;BME280;47863;55.766;37.672;2022-07-04T03:35:50;99884.72;;;21.64;49.65
61906;BME280;47863;55.766;37.672;2022-07-04T03:38:15;99887.72;;;21.74;49.66
61906;BME280;47863;55.766;37.672;2022-07-04T03:40:41;99881.94;;;21.83;49.25
61906;BME280;47863;55.766;37.672;2022-07-04T03:43:06;99885.66;;;22.00;48.78
61906;BME280;47863;55.766;37.672;2022-07-04T03:45:32;99886.63;;;22.17;49.10
61906;BME280;47863;55.766;37.672;2022-07-04T03:47:58;99877.75;;;22.22;48.99
61906;BME280;47863;55.766;37.672;2022-07-04T03:50:24;99881.47;;;22.40;48.42
61906;BME280;47863;55.766;37.672;2022-07-04T03:52:50;99874.13;;;22.52;48.09
61906;BME280;47863;55.766;37.672;2022-07-04T03:55:17;99876.47;;;22.60;48.13
61906;BME280;47863;55.766;37.672;2022-07-04T03:57:42;99893.91;;;22.83;48.32
61906;BME280;47863;55.766;37.672;2022-07-04T04:00:08;99891.88;;;22.90;48.10
61906;BME280;47863;55.766;37.672;2022-07-04T04:02:36;99888.31;;;23.01;48.33
61906;BME280;47863;55.766;37.672;2022-07-04T04:05:02;99891.53;;;23.10;47.51
61906;BME280;47863;55.766;37.672;2022-07-04T04:07:47;99889.56;;;23.22;47.51
61906;BME280;47863;55.766;37.672;2022-07-04T04:10:12;99885.06;;;23.28;46.73
61906;BME280;47863;55.766;37.672;2022-07-04T04:12:38;99887.66;;;23.34;46.66
61906;BME280;47863;55.766;37.672;2022-07-04T04:15:04;99893.31;;;23.45;46.89
61906;BME280;47863;55.766;37.672;2022-07-04T04:17:30;99889.13;;;23.54;47.21
61906;BME280;47863;55.766;37.672;2022-07-04T04:19:55;99886.00;;;23.62;46.54
61906;BME280;47863;55.766;37.672;2022-07-04T04:22:21;99890.31;;;23.75;46.20
61906;BME280;47863;55.766;37.672;2022-07-04T04:24:46;99889.72;;;23.85;46.21
61906;BME280;47863;55.766;37.672;2022-07-04T04:27:12;99885.50;;;23.94;46.80
61906;BME280;47863;55.766;37.672;2022-07-04T04:29:38;99885.28;;;24.12;47.17
61906;BME280;47863;55.766;37.672;2022-07-04T04:32:03;99884.44;;;24.29;48.55
61906;BME280;47863;55.766;37.672;2022-07-04T04:34:29;99884.84;;;24.38;47.98
61906;BME280;47863;55.766;37.672;2022-07-04T04:36:54;99889.50;;;24.54;48.26
61906;BME280;47863;55.766;37.672;2022-07-04T04:39:20;99873.91;;;24.54;47.10
61906;BME280;47863;55.766;37.672;2022-07-04T04:41:46;99887.25;;;24.68;46.31
61906;BME280;47863;55.766;37.672;2022-07-04T04:44:11;99898.34;;;24.78;45.51
61906;BME280;47863;55.766;37.672;2022-07-04T04:46:37;99894.34;;;24.86;45.18
61906;BME280;47863;55.766;37.672;2022-07-04T04:49:02;99894.66;;;24.89;45.16
61906;BME280;47863;55.766;37.672;2022-07-04T04:51:28;99893.41;;;24.97;44.12
61906;BME280;47863;55.766;37.672;2022-07-04T04:53:54;99895.13;;;25.03;45.16
61906;BME280;47863;55.766;37.672;2022-07-04T04:56:19;99902.00;;;25.06;44.60
61906;BME280;47863;55.766;37.672;2022-07-04T04:58:45;99905.16;;;25.14;44.25
61906;BME280;47863;55.766;37.672;2022-07-04T05:01:10;99901.63;;;25.19;44.37
61906;BME280;47863;55.766;37.672;2022-07-04T05:03:36;99890.34;;;25.16;43.87
61906;BME280;47863;55.766;37.672;2022-07-04T05:06:01;99899.25;;;25.23;44.95
61906;BME280;47863;55.766;37.672;2022-07-04T05:08:27;99897.66;;;25.27;43.54
61906;BME280;47863;55.766;37.672;2022-07-04T05:10:53;99886.13;;;25.25;43.99
61906;BME280;47863;55.766;37.672;2022-07-04T05:13:19;99895.81;;;25.32;43.38
61906;BME280;47863;55.766;37.672;2022-07-04T05:15:45;99894.28;;;25.42;42.91
61906;BME280;47863;55.766;37.672;2022-07-04T05:18:12;99889.63;;;25.42;42.71
61906;BME280;47863;55.766;37.672;2022-07-04T05:20:37;99904.31;;;25.58;43.82
61906;BME280;47863;55.766;37.672;2022-07-04T05:23:05;99892.00;;;25.61;43.59
61906;BME280;47863;55.766;37.672;2022-07-04T05:25:31;99908.41;;;25.83;43.77
61906;BME280;47863;55.766;37.672;2022-07-04T05:27:57;99872.44;;;25.79;42.09
61906;BME280;47863;55.766;37.672;2022-07-04T05:30:23;99903.31;;;26.19;41.35
61906;BME280;47863;55.766;37.672;2022-07-04T05:32:49;99896.09;;;26.45;40.98
61906;BME280;47863;55.766;37.672;2022-07-04T05:35:14;99900.09;;;26.69;40.66
61906;BME280;47863;55.766;37.672;2022-07-04T05:37:40;99898.56;;;26.84;39.71
61906;BME280;47863;55.766;37.672;2022-07-04T05:40:06;99890.03;;;26.85;40.79
61906;BME280;47863;55.766;37.672;2022-07-04T05:42:34;99889.81;;;26.92;39.18
61906;BME280;47863;55.766;37.672;2022-07-04T05:44:59;99898.06;;;26.97;39.38
61906;BME280;47863;55.766;37.672;2022-07-04T05:47:25;99891.22;;;27.00;40.04
61906;BME280;47863;55.766;37.672;2022-07-04T05:49:51;99886.56;;;27.00;39.99
61906;BME280;47863;55.766;37.672;2022-07-04T05:52:17;99894.84;;;27.05;38.89
61906;BME280;47863;55.766;37.672;2022-07-04T05:54:42;99895.09;;;27.09;39.91
61906;BME280;47863;55.766;37.672;2022-07-04T05:57:08;99897.59;;;27.10;41.08
61906;BME280;47863;55.766;37.672;2022-07-04T05:59:34;99898.19;;;27.23;38.77
61906;BME280;47863;55.766;37.672;2022-07-04T06:02:00;99894.69;;;27.33;38.68
61906;BME280;47863;55.766;37.672;2022-07-04T06:04:25;99883.41;;;27.34;38.76
61906;BME280;47863;55.766;37.672;2022-07-04T06:06:51;99892.81;;;27.48;38.73
61906;BME280;47863;55.766;37.672;2022-07-04T06:09:17;99901.34;;;27.52;38.13
61906;BME280;47863;55.766;37.672;2022-07-04T06:11:43;99893.09;;;27.62;38.37
61906;BME280;47863;55.766;37.672;2022-07-04T06:14:08;99893.97;;;27.78;38.15
61906;BME280;47863;55.766;37.672;2022-07-04T06:16:41;99886.28;;;27.85;37.12
61906;BME280;47863;55.766;37.672;2022-07-04T06:19:06;99886.88;;;27.98;36.67
61906;BME280;47863;55.766;37.672;2022-07-04T06:21:32;99891.03;;;28.11;36.45
61906;BME280;47863;55.766;37.672;2022-07-04T06:23:57;99891.56;;;28.28;37.23
61906;BME280;47863;55.766;37.672;2022-07-04T06:26:24;99885.75;;;28.50;37.51
61906;BME280;47863;55.766;37.672;2022-07-04T06:28:49;99886.00;;;28.74;36.42
61906;BME280;47863;55.766;37.672;2022-07-04T06:31:15;99890.03;;;29.07;35.01
61906;BME280;47863;55.766;37.672;2022-07-04T06:33:42;99883.56;;;29.43;34.27
61906;BME280;47863;55.766;37.672;2022-07-04T06:36:44;99890.78;;;29.83;33.33
61906;BME280;47863;55.766;37.672;2022-07-04T06:39:10;99885.56;;;30.16;32.60
61906;BME280;47863;55.766;37.672;2022-07-04T06:41:35;99890.94;;;30.66;32.96
61906;BME280;47863;55.766;37.672;2022-07-04T06:44:01;99890.31;;;31.22;32.31
61906;BME280;47863;55.766;37.672;2022-07-04T06:46:26;99888.72;;;31.59;31.36
61906;BME280;47863;55.766;37.672;2022-07-04T06:48:52;99891.56;;;31.92;30.58
61906;BME280;47863;55.766;37.672;2022-07-04T06:51:17;99882.41;;;32.30;29.37
61906;BME280;47863;55.766;37.672;2022-07-04T06:53:43;99899.34;;;32.89;28.50
61906;BME280;47863;55.766;37.672;2022-07-04T06:56:11;99888.53;;;33.43;27.76
61906;BME280;47863;55.766;37.672;2022-07-04T06:58:37;99881.19;;;33.74;27.00
61906;BME280;47863;55.766;37.672;2022-07-04T07:01:03;99891.94;;;33.90;26.50
61906;BME280;47863;55.766;37.672;2022-07-04T07:03:28;99888.50;;;33.70;26.84
61906;BME280;47863;55.766;37.672;2022-07-04T07:05:54;99874.75;;;33.51;26.84
61906;BME280;47863;55.766;37.672;2022-07-04T07:08:22;99886.53;;;33.71;27.51
61906;BME280;47863;55.766;37.672;2022-07-04T07:10:47;99882.47;;;34.13;26.90
61906;BME280;47863;55.766;37.672;2022-07-04T07:13:13;99891.19;;;34.43;26.52
61906;BME280;47863;55.766;37.672;2022-07-04T07:15:39;99887.84;;;34.64;25.79
61906;BME280;47863;55.766;37.672;2022-07-04T07:18:06;99877.97;;;34.80;26.56
61906;BME280;47863;55.766;37.672;2022-07-04T07:20:32;99890.50;;;35.00;26.34
61906;BME280;47863;55.766;37.672;2022-07-04T07:22:57;99886.41;;;35.06;25.07
61906;BME280;47863;55.766;37.672;2022-07-04T07:25:23;99886.59;;;35.10;25.81
61906;BME280;47863;55.766;37.672;2022-07-04T07:27:49;99881.41;;;35.34;25.38
61906;BME280;47863;55.766;37.672;2022-07-04T07:30:15;99892.16;;;36.02;23.56
61906;BME280;47863;55.766;37.672;2022-07-04T07:32:40;99887.94;;;36.69;23.14
61906;BME280;47863;55.766;37.672;2022-07-04T07:35:06;99889.91;;;37.58;20.51
61906;BME280;47863;55.766;37.672;2022-07-04T07:37:31;99883.09;;;38.43;20.63
61906;BME280;47863;55.766;37.672;2022-07-04T07:39:57;99862.41;;;39.18;19.77
61906;BME280;47863;55.766;37.672;2022-07-04T07:42:24;99887.97;;;40.54;18.11
61906;BME280;47863;55.766;37.672;2022-07-04T07:44:50;99885.53;;;42.07;17.20
61906;BME280;47863;55.766;37.672;2022-07-04T07:47:15;99876.22;;;43.48;15.92
61906;BME280;47863;55.766;37.672;2022-07-04T07:49:44;99880.06;;;44.72;13.78
61906;BME280;47863;55.766;37.672;2022-07-04T07:52:10;99880.56;;;45.40;13.55
61906;BME280;47863;55.766;37.672;2022-07-04T07:54:36;99882.13;;;46.22;13.61
61906;BME280;47863;55.766;37.672;2022-07-04T07:57:02;99880.97;;;47.09;12.47
61906;BME280;47863;55.766;37.672;2022-07-04T07:59:28;99879.69;;;47.32;12.45
61906;BME280;47863;55.766;37.672;2022-07-04T08:01:53;99890.25;;;47.27;12.44
61906;BME280;47863;55.766;37.672;2022-07-04T08:04:19;99889.41;;;47.56;12.69
61906;BME280;47863;55.766;37.672;2022-07-04T08:07:01;99892.97;;;49.35;15.91
61906;BME280;47863;55.766;37.672;2022-07-04T08:09:26;99878.59;;;49.15;11.52
61906;BME280;47863;55.766;37.672;2022-07-04T08:11:52;99879.38;;;49.53;11.05
61906;BME280;47863;55.766;37.672;2022-07-04T08:14:18;99882.66;;;49.52;10.78
61906;BME280;47863;55.766;37.672;2022-07-04T08:16:43;99893.72;;;49.05;11.19
61906;BME280;47863;55.766;37.672;2022-07-04T08:19:09;99888.31;;;48.72;11.79
61906;BME280;47863;55.766;37.672;2022-07-04T08:21:35;99894.16;;;48.99;11.86
61906;BME280;47863;55.766;37.672;2022-07-04T08:24:00;99888.72;;;49.54;11.27
61906;BME280;47863;55.766;37.672;2022-07-04T08:26:26;99890.56;;;49.33;11.29
61906;BME280;47863;55.766;37.672;2022-07-04T08:28:52;99884.28;;;48.70;11.57
61906;BME280;47863;55.766;37.672;2022-07-04T08:31:18;99895.19;;;48.75;11.54
61906;BME280;47863;55.766;37.672;2022-07-04T08:33:44;99880.53;;;49.21;10.83
61906;BME280;47863;55.766;37.672;2022-07-04T08:36:12;99894.06;;;49.83;10.82
61906;BME280;47863;55.766;37.672;2022-07-04T08:38:37;99886.66;;;50.47;10.38
61906;BME280;47863;55.766;37.672;2022-07-04T08:41:03;99892.00;;;51.15;10.01
61906;BME280;47863;55.766;37.672;2022-07-04T08:43:30;99894.28;;;51.84;9.67
61906;BME280;47863;55.766;37.672;2022-07-04T08:46:04;99898.06;;;52.67;8.57
61906;BME280;47863;55.766;37.672;2022-07-04T08:48:31;99883.69;;;52.87;8.21
61906;BME280;47863;55.766;37.672;2022-07-04T08:51:02;99880.84;;;53.45;8.34
61906;BME280;47863;55.766;37.672;2022-07-04T08:53:30;99892.19;;;53.49;8.07
61906;BME280;47863;55.766;37.672;2022-07-04T08:55:56;99886.13;;;53.47;7.85
61906;BME280;47863;55.766;37.672;2022-07-04T08:58:42;99887.34;;;53.75;7.64
61906;BME280;47863;55.766;37.672;2022-07-04T09:01:10;99890.94;;;53.50;8.11
61906;BME280;47863;55.766;37.672;2022-07-04T09:03:43;99882.66;;;53.39;8.50
61906;BME280;47863;55.766;37.672;2022-07-04T09:06:12;99882.63;;;53.26;8.66
61906;BME280;47863;55.766;37.672;2022-07-04T09:08:39;99893.81;;;53.50;8.38
61906;BME280;47863;55.766;37.672;2022-07-04T09:11:05;99874.72;;;53.30;8.14
61906;BME280;47863;55.766;37.672;2022-07-04T09:13:31;99879.06;;;52.44;8.60
61906;BME280;47863;55.766;37.672;2022-07-04T09:15:57;99878.31;;;51.27;9.26
61906;BME280;47863;55.766;37.672;2022-07-04T09:18:28;99884.50;;;50.27;9.56
61906;BME280;47863;55.766;37.672;2022-07-04T09:20:57;99875.75;;;50.38;9.55
61906;BME280;47863;55.766;37.672;2022-07-04T09:23:29;99879.84;;;51.11;8.96
61906;BME280;47863;55.766;37.672;2022-07-04T09:28:36;99884.06;;;52.03;9.57
61906;BME280;47863;55.766;37.672;2022-07-04T09:31:02;99878.41;;;52.20;8.32
61906;BME280;47863;55.766;37.672;2022-07-04T09:33:45;99870.47;;;52.44;8.61
61906;BME280;47863;55.766;37.672;2022-07-04T09:36:13;99866.94;;;52.03;8.33
61906;BME280;47863;55.766;37.672;2022-07-04T09:38:39;99871.16;;;52.31;8.56
61906;BME280;47863;55.766;37.672;2022-07-04T09:41:05;99857.88;;;52.74;7.92
61906;BME280;47863;55.766;37.672;2022-07-04T09:44:07;99866.97;;;53.44;8.28
61906;BME280;47863;55.766;37.672;2022-07-04T09:46:32;99864.31;;;52.62;8.38
61906;BME280;47863;55.766;37.672;2022-07-04T09:48:59;99859.94;;;52.57;8.27
61906;BME280;47863;55.766;37.672;2022-07-04T09:51:47;99868.16;;;53.46;8.27
61906;BME280;47863;55.766;37.672;2022-07-04T09:56:48;99853.38;;;53.90;7.62
61906;BME280;47863;55.766;37.672;2022-07-04T09:59:14;99849.78;;;53.73;7.75
61906;BME280;47863;55.766;37.672;2022-07-04T10:01:40;99850.72;;;53.41;8.16
61906;BME280;47863;55.766;37.672;2022-07-04T10:04:07;99856.00;;;53.13;7.99
61906;BME280;47863;55.766;37.672;2022-07-04T10:06:33;99845.44;;;52.97;7.84
61906;BME280;47863;55.766;37.672;2022-07-04T10:09:15;99835.91;;;53.59;7.65
61906;BME280;47863;55.766;37.672;2022-07-04T10:11:42;99852.44;;;53.38;7.85
61906;BME280;47863;55.766;37.672;2022-07-04T10:14:10;99836.47;;;53.54;7.87
61906;BME280;47863;55.766;37.672;2022-07-04T10:16:37;99841.88;;;53.64;7.20
61906;BME280;47863;55.766;37.672;2022-07-04T10:19:04;99832.59;;;53.60;6.71
61906;BME280;47863;55.766;37.672;2022-07-04T10:21:30;99827.97;;;53.50;6.85
61906;BME280;47863;55.766;37.672;2022-07-04T10:23:57;99821.28;;;53.27;7.47
61906;BME280;47863;55.766;37.672;2022-07-04T10:26:22;99825.69;;;53.16;7.28
61906;BME280;47863;55.766;37.672;2022-07-04T10:28:50;99815.22;;;52.80;7.37
61906;BME280;47863;55.766;37.672;2022-07-04T10:31:19;99823.34;;;51.83;7.99
61906;BME280;47863;55.766;37.672;2022-07-04T10:33:45;99822.19;;;51.00;8.49
61906;BME280;47863;55.766;37.672;2022-07-04T10:41:11;99818.03;;;48.31;10.93
61906;BME280;47863;55.766;37.672;2022-07-04T10:48:58;99825.97;;;49.95;9.66
61906;BME280;47863;55.766;37.672;2022-07-04T10:51:37;99814.28;;;50.17;9.94
61906;BME280;47863;55.766;37.672;2022-07-04T10:54:08;99814.66;;;50.43;9.32
61906;BME280;47863;55.766;37.672;2022-07-04T10:59:08;99805.78;;;50.37;8.88
61906;BME280;47863;55.766;37.672;2022-07-04T11:01:34;99788.91;;;48.61;9.58
61906;BME280;47863;55.766;37.672;2022-07-04T11:03:59;99789.50;;;46.87;11.25
61906;BME280;47863;55.766;37.672;2022-07-04T11:09:23;99796.63;;;44.85;13.40
61906;BME280;47863;55.766;37.672;2022-07-04T11:12:00;99793.84;;;45.69;12.48
61906;BME280;47863;55.766;37.672;2022-07-04T11:14:46;99790.31;;;46.62;11.85
61906;BME280;47863;55.766;37.672;2022-07-04T11:17:19;99795.47;;;47.14;11.99
61906;BME280;47863;55.766;37.672;2022-07-04T11:19:46;99784.75;;;47.69;11.09
61906;BME280;47863;55.766;37.672;2022-07-04T11:22:21;99780.06;;;48.52;11.26
61906;BME280;47863;55.766;37.672;2022-07-04T11:24:48;99781.53;;;48.71;11.04
61906;BME280;47863;55.766;37.672;2022-07-04T11:27:14;99784.41;;;48.68;11.08
61906;BME280;47863;55.766;37.672;2022-07-04T11:29:50;99786.88;;;49.03;10.30
61906;BME280;47863;55.766;37.672;2022-07-04T11:32:16;99776.69;;;48.19;11.27
61906;BME280;47863;55.766;37.672;2022-07-04T11:34:42;99773.25;;;46.98;12.01
61906;BME280;47863;55.766;37.672;2022-07-04T11:37:07;99771.69;;;46.40;13.08
61906;BME280;47863;55.766;37.672;2022-07-04T11:39:33;99779.38;;;46.21;12.01
61906;BME280;47863;55.766;37.672;2022-07-04T11:41:58;99775.44;;;45.24;12.48
61906;BME280;47863;55.766;37.672;2022-07-04T11:44:43;99771.78;;;44.50;13.49
61906;BME280;47863;55.766;37.672;2022-07-04T11:47:35;99775.31;;;44.95;13.00
61906;BME280;47863;55.766;37.672;2022-07-04T11:50:01;99771.28;;;44.44;13.03
61906;BME280;47863;55.766;37.672;2022-07-04T11:52:40;99764.38;;;43.60;13.31
61906;BME280;47863;55.766;37.672;2022-07-04T11:55:09;99765.31;;;43.07;14.71
61906;BME280;47863;55.766;37.672;2022-07-04T11:57:41;99769.56;;;43.54;14.09
61906;BME280;47863;55.766;37.672;2022-07-04T12:00:09;99774.81;;;43.55;14.36
61906;BME280;47863;55.766;37.672;2022-07-04T12:02:36;99758.72;;;43.56;13.99
61906;BME280;47863;55.766;37.672;2022-07-04T12:05:05;99762.13;;;43.72;13.99
61906;BME280;47863;55.766;37.672;2022-07-04T12:07:33;99760.50;;;44.09;13.83
61906;BME280;47863;55.766;37.672;2022-07-04T12:10:21;99759.75;;;44.64;13.17
61906;BME280;47863;55.766;37.672;2022-07-04T12:15:22;99750.69;;;44.40;13.47
61906;BME280;47863;55.766;37.672;2022-07-04T12:17:53;99748.28;;;43.60;13.79
61906;BME280;47863;55.766;37.672;2022-07-04T12:20:24;99741.06;;;41.99;14.84
61906;BME280;47863;55.766;37.672;2022-07-04T12:22:52;99747.88;;;40.65;16.43
61906;BME280;47863;55.766;37.672;2022-07-04T12:25:22;99749.69;;;39.37;17.03
61906;BME280;47863;55.766;37.672;2022-07-04T12:28:03;99740.88;;;38.45;18.14
61906;BME280;47863;55.766;37.672;2022-07-04T12:30:41;99732.13;;;37.77;18.89
61906;BME280;47863;55.766;37.672;2022-07-04T12:33:13;99734.09;;;37.22;20.23
61906;BME280;47863;55.766;37.672;2022-07-04T12:35:44;99730.06;;;36.89;20.27
61906;BME280;47863;55.766;37.672;2022-07-04T12:38:29;99737.84;;;36.45;20.54
61906;BME280;47863;55.766;37.672;2022-07-04T12:43:26;99733.19;;;35.72;21.19
61906;BME280;47863;55.766;37.672;2022-07-04T12:46:30;99729.09;;;35.44;21.65
61906;BME280;47863;55.766;37.672;2022-07-04T12:48:57;99715.66;;;34.93;22.28
61906;BME280;47863;55.766;37.672;2022-07-04T12:51:32;99722.31;;;34.66;21.28
61906;BME280;47863;55.766;37.672;2022-07-04T12:54:05;99719.94;;;34.42;23.40
61906;BME280;47863;55.766;37.672;2022-07-04T12:59:00;99720.38;;;34.27;23.34
61906;BME280;47863;55.766;37.672;2022-07-04T13:01:26;99710.44;;;34.03;23.35
61906;BME280;47863;55.766;37.672;2022-07-04T13:03:52;99712.91;;;33.73;23.76
61906;BME280;47863;55.766;37.672;2022-07-04T13:06:18;99714.38;;;33.57;24.10
61906;BME280;47863;55.766;37.672;2022-07-04T13:08:45;99710.59;;;33.53;24.50
61906;BME280;47863;55.766;37.672;2022-07-04T13:11:10;99723.44;;;33.63;24.35
61906;BME280;47863;55.766;37.672;2022-07-04T13:13:55;99713.03;;;33.68;23.89
61906;BME280;47863;55.766;37.672;2022-07-04T13:16:20;99712.53;;;33.66;24.07
61906;BME280;47863;55.766;37.672;2022-07-04T13:18:46;99704.50;;;33.65;24.23
61906;BME280;47863;55.766;37.672;2022-07-04T13:21:12;99702.97;;;33.58;24.15
61906;BME280;47863;55.766;37.672;2022-07-04T13:23:37;99694.28;;;33.51;23.92
61906;BME280;47863;55.766;37.672;2022-07-04T13:26:03;99705.31;;;33.43;25.28